createdAt,value
2023-05-06T08:01:12.217Z,37.78
2023-05-06T08:02:12.253Z,36.83
2023-05-06T08:03:12.206Z,36.66
2023-05-06T08:04:12.235Z,36.60
2023-05-06T08:05:12.484Z,36.52
2023-05-06T08:06:12.902Z,36.48
2023-05-06T08:07:12.126Z,36.46
2023-05-06T08:08:12.888Z,36.42
2023-05-06T08:09:16.955Z,36.37
2023-05-06T08:10:12.115Z,36.35
2023-05-06T08:11:12.113Z,36.34
2023-05-06T08:12:12.079Z,36.31
2023-05-06T08:13:12.184Z,36.28
2023-05-06T08:14:12.873Z,36.26
2023-05-06T08:15:12.296Z,36.25
2023-05-06T08:16:12.113Z,36.24
2023-05-06T08:17:12.062Z,36.22
2023-05-06T08:18:21.650Z,36.21
2023-05-06T08:19:12.048Z,36.21
2023-05-06T08:20:12.036Z,36.20
2023-05-06T08:21:12.014Z,36.18
2023-05-06T08:22:12.401Z,36.14
2023-05-06T08:23:11.995Z,36.14
2023-05-06T08:24:12.001Z,36.14
2023-05-06T08:25:12.230Z,36.14
2023-05-06T08:26:11.988Z,36.11
2023-05-06T08:27:11.962Z,36.09
2023-05-06T08:28:11.965Z,36.11
2023-05-06T08:29:11.956Z,36.11
2023-05-06T08:30:13.929Z,36.10
2023-05-06T08:31:12.080Z,36.09
2023-05-06T08:32:12.047Z,36.09
2023-05-06T08:33:11.925Z,36.09
2023-05-06T08:34:11.944Z,36.09
2023-05-06T08:35:12.237Z,36.08
2023-05-06T08:36:11.944Z,36.08
2023-05-06T08:37:11.897Z,36.06
2023-05-06T08:38:11.922Z,36.10
2023-05-06T08:39:11.915Z,36.07
2023-05-06T08:40:11.888Z,36.03
2023-05-06T08:41:11.915Z,36.01
2023-05-06T08:42:11.906Z,36.02
2023-05-06T08:43:13.446Z,36.04
2023-05-06T08:44:11.889Z,36.02
2023-05-06T08:45:12.000Z,36.03
2023-05-06T08:46:11.944Z,36.03
2023-05-06T08:47:11.901Z,36.05
2023-05-06T08:48:11.857Z,36.03
2023-05-06T08:49:11.939Z,36.02
2023-05-06T08:50:11.881Z,36.00
2023-05-06T08:51:12.433Z,36.03
2023-05-06T08:52:11.782Z,36.05
2023-05-06T08:53:11.846Z,36.01
2023-05-06T08:54:11.787Z,36.00
2023-05-06T08:55:12.106Z,35.99
2023-05-06T08:56:11.807Z,36.01
2023-05-06T08:57:12.665Z,36.01
2023-05-06T08:58:11.757Z,36.02
2023-05-06T08:59:11.803Z,36.02
2023-05-06T09:00:11.782Z,36.00
2023-05-06T09:01:11.798Z,36.01
2023-05-06T09:02:11.858Z,36.01
2023-05-06T09:03:11.814Z,36.00
2023-05-06T09:04:11.737Z,36.01
2023-05-06T09:05:11.935Z,36.05
2023-05-06T09:06:11.877Z,36.02
2023-05-06T09:07:11.707Z,36.03
2023-05-06T09:08:11.689Z,36.01
2023-05-06T09:09:11.690Z,36.00
2023-05-06T09:10:11.905Z,36.01
2023-05-06T09:11:12.393Z,36.03
2023-05-06T09:12:11.672Z,36.01
2023-05-06T09:13:11.675Z,36.02
2023-05-06T09:14:11.644Z,36.02
2023-05-06T09:15:11.864Z,36.02
2023-05-06T09:16:11.728Z,36.01
2023-05-06T09:17:11.726Z,36.02
2023-05-06T09:18:11.765Z,36.02
2023-05-06T09:19:11.598Z,36.05
2023-05-06T09:20:11.660Z,36.02
2023-05-06T09:21:11.615Z,36.01
2023-05-06T09:22:11.592Z,36.05
2023-05-06T09:23:11.634Z,36.03
2023-05-06T09:24:12.405Z,36.02
2023-05-06T09:25:11.804Z,36.03
2023-05-06T09:26:11.570Z,36.01
2023-05-06T09:27:12.792Z,36.01
2023-05-06T09:28:11.547Z,36.03
2023-05-06T09:29:11.535Z,36.02
2023-05-06T09:30:11.596Z,36.02
2023-05-06T09:31:11.569Z,36.03
2023-05-06T09:32:11.539Z,36.00
2023-05-06T09:33:12.006Z,36.01
2023-05-06T09:34:11.539Z,36.00
2023-05-06T09:35:11.823Z,36.00
2023-05-06T09:36:11.523Z,35.99
2023-05-06T09:37:11.459Z,36.00
2023-05-06T09:38:11.500Z,35.98
2023-05-06T09:39:11.611Z,36.00
2023-05-06T09:40:12.434Z,35.99
2023-05-06T09:41:11.452Z,35.98
2023-05-06T09:42:11.493Z,35.99
2023-05-06T09:43:12.426Z,35.96
2023-05-06T09:44:11.433Z,35.99
2023-05-06T09:45:11.715Z,35.98
2023-05-06T09:46:12.444Z,35.99
2023-05-06T09:47:11.436Z,35.97
2023-05-06T09:48:11.523Z,35.96
2023-05-06T09:49:11.912Z,35.98
2023-05-06T09:50:11.395Z,35.98
2023-05-06T09:51:11.459Z,35.97
2023-05-06T09:52:11.475Z,35.94
2023-05-06T09:53:11.471Z,35.94
2023-05-06T09:54:11.516Z,35.94
2023-05-06T09:55:11.693Z,35.94
2023-05-06T09:56:11.566Z,35.93
2023-05-06T09:57:11.602Z,35.95
2023-05-06T09:58:11.523Z,35.94
2023-05-06T09:59:11.533Z,35.95
2023-05-06T10:00:11.540Z,35.95
2023-05-06T10:01:13.216Z,35.93
2023-05-06T10:02:11.611Z,35.93
2023-05-06T10:03:11.609Z,35.90
2023-05-06T10:04:11.617Z,35.90
2023-05-06T10:05:12.135Z,35.91
2023-05-06T10:06:11.457Z,35.91
2023-05-06T10:07:11.508Z,35.91
2023-05-06T10:08:11.456Z,35.90
2023-05-06T10:09:11.551Z,35.91
2023-05-06T10:10:11.481Z,35.87
2023-05-06T10:11:11.448Z,35.89
2023-05-06T10:12:11.509Z,35.89
2023-05-06T10:13:11.470Z,35.89
2023-05-06T10:14:11.416Z,35.91
2023-05-06T10:15:11.681Z,35.89
2023-05-06T10:16:12.800Z,35.87
2023-05-06T10:17:11.543Z,35.88
2023-05-06T10:18:11.610Z,35.88
2023-05-06T10:19:11.559Z,35.89
2023-05-06T10:20:11.590Z,35.89
2023-05-06T10:21:11.611Z,35.90
2023-05-06T10:22:11.632Z,35.89
2023-05-06T10:23:11.640Z,35.87
2023-05-06T10:24:11.704Z,35.87
2023-05-06T10:25:11.883Z,35.89
2023-05-06T10:26:11.634Z,35.85
2023-05-06T10:27:11.593Z,35.84
2023-05-06T10:28:13.656Z,35.84
2023-05-06T10:29:12.550Z,35.85
2023-05-06T10:30:11.562Z,35.87
2023-05-06T10:31:11.603Z,35.85
2023-05-06T10:32:11.582Z,35.83
2023-05-06T10:33:12.596Z,35.85
2023-05-06T10:34:12.463Z,35.84
2023-05-06T10:35:11.693Z,35.84
2023-05-06T10:36:11.523Z,35.82
2023-05-06T10:37:11.540Z,35.81
2023-05-06T10:38:11.528Z,35.83
2023-05-06T10:39:11.513Z,35.81
2023-05-06T10:40:11.489Z,35.83
2023-05-06T10:41:11.555Z,35.80
2023-05-06T10:42:12.488Z,35.82
2023-05-06T10:43:11.472Z,35.80
2023-05-06T10:44:11.477Z,35.81
2023-05-06T10:45:11.764Z,35.83
2023-05-06T10:46:11.556Z,35.80
2023-05-06T10:47:11.561Z,35.82
2023-05-06T10:48:11.483Z,35.81
2023-05-06T10:49:11.917Z,35.81
2023-05-06T10:50:11.501Z,35.81
2023-05-06T10:51:11.468Z,35.81
2023-05-06T10:52:11.556Z,35.80
2023-05-06T10:53:12.476Z,35.80
2023-05-06T10:54:11.513Z,35.80
2023-05-06T10:55:11.949Z,35.78
2023-05-06T10:56:11.592Z,35.79
2023-05-06T10:57:11.645Z,35.77
2023-05-06T10:58:11.634Z,35.79
2023-05-06T10:59:11.587Z,35.80
2023-05-06T11:00:11.619Z,35.80
2023-05-06T11:01:11.639Z,35.79
2023-05-06T11:02:11.601Z,35.77
2023-05-06T11:03:11.714Z,35.78
2023-05-06T11:04:11.556Z,35.78
2023-05-06T11:05:12.143Z,35.76
2023-05-06T11:06:11.558Z,35.78
2023-05-06T11:07:11.525Z,35.80
2023-05-06T11:08:11.543Z,35.75
2023-05-06T11:09:11.496Z,35.76
2023-05-06T11:10:11.532Z,35.76
2023-05-06T11:11:11.542Z,35.75
2023-05-06T11:12:11.512Z,35.76
2023-05-06T11:13:11.567Z,35.74
2023-05-06T11:14:11.936Z,35.72
2023-05-06T11:15:11.642Z,35.72
2023-05-06T11:16:11.502Z,35.71
2023-05-06T11:17:11.512Z,35.74
2023-05-06T11:18:11.456Z,35.71
2023-05-06T11:19:11.472Z,35.69
2023-05-06T11:20:11.803Z,35.68
2023-05-06T11:21:11.469Z,35.68
2023-05-06T11:22:11.425Z,35.67
2023-05-06T11:23:11.405Z,35.66
2023-05-06T11:24:11.462Z,35.69
2023-05-06T11:25:11.420Z,35.67
2023-05-06T11:26:11.443Z,35.66
2023-05-06T11:27:11.426Z,35.68
2023-05-06T11:28:11.928Z,35.68
2023-05-06T11:29:11.538Z,35.67
2023-05-06T11:30:11.635Z,35.68
2023-05-06T11:31:12.537Z,35.68
2023-05-06T11:32:11.490Z,35.67
2023-05-06T11:33:11.509Z,35.64
2023-05-06T11:34:11.441Z,35.66
2023-05-06T11:35:11.468Z,35.67
2023-05-06T11:36:11.441Z,35.67
2023-05-06T11:37:11.445Z,35.66
2023-05-06T11:38:11.477Z,35.67
2023-05-06T11:39:11.431Z,35.64
2023-05-06T11:40:11.639Z,35.65
2023-05-06T11:41:11.410Z,35.64
2023-05-06T11:42:11.397Z,35.63
2023-05-06T11:43:11.387Z,35.64
2023-05-06T11:44:11.706Z,35.64
2023-05-06T11:45:11.447Z,35.64
2023-05-06T11:46:11.405Z,35.62
2023-05-06T11:47:11.359Z,35.62
2023-05-06T11:48:11.393Z,35.62
2023-05-06T11:49:11.362Z,35.61
2023-05-06T11:50:11.536Z,35.55
2023-05-06T11:51:11.370Z,35.57
2023-05-06T11:52:11.439Z,35.58
2023-05-06T11:53:11.391Z,35.56
2023-05-06T11:54:11.409Z,35.56
2023-05-06T11:55:11.401Z,35.54
2023-05-06T11:56:11.985Z,35.56
2023-05-06T11:57:12.500Z,35.53
2023-05-06T11:58:11.531Z,35.51
2023-05-06T11:59:11.494Z,35.50
2023-05-06T12:00:11.705Z,35.49
2023-05-06T12:01:11.723Z,35.46
2023-05-06T12:02:11.559Z,35.50
2023-05-06T12:03:11.636Z,35.46
2023-05-06T12:04:11.617Z,35.48
2023-05-06T12:05:11.594Z,35.47
2023-05-06T12:06:11.636Z,35.47
2023-05-06T12:07:11.656Z,35.47
2023-05-06T12:08:23.440Z,35.47
2023-05-06T12:09:12.618Z,35.48
2023-05-06T12:10:11.855Z,35.49
2023-05-06T12:11:11.627Z,35.46
2023-05-06T12:12:11.602Z,35.48
2023-05-06T12:13:12.974Z,35.48
2023-05-06T12:14:11.630Z,35.48
2023-05-06T12:15:11.588Z,35.48
2023-05-06T12:16:11.606Z,35.47
2023-05-06T12:17:12.497Z,35.49
2023-05-06T12:18:11.624Z,35.45
2023-05-06T12:19:11.572Z,35.46
2023-05-06T12:20:11.751Z,35.46
2023-05-06T12:21:11.555Z,35.46
2023-05-06T12:22:11.591Z,35.48
2023-05-06T12:23:11.543Z,35.46
2023-05-06T12:24:11.567Z,35.47
2023-05-06T12:25:11.744Z,35.46
2023-05-06T12:26:11.541Z,35.45
2023-05-06T12:27:12.461Z,35.45
2023-05-06T12:28:11.520Z,35.45
2023-05-06T12:29:11.510Z,35.45
2023-05-06T12:30:11.888Z,35.45
2023-05-06T12:31:11.517Z,35.44
2023-05-06T12:32:11.590Z,35.43
2023-05-06T12:33:12.022Z,35.44
2023-05-06T12:34:11.456Z,35.45
2023-05-06T12:35:11.452Z,35.45
2023-05-06T12:36:11.445Z,35.43
2023-05-06T12:37:11.412Z,35.42
2023-05-06T12:38:11.494Z,35.39
2023-05-06T12:39:11.411Z,35.41
2023-05-06T12:40:11.520Z,35.40
2023-05-06T12:41:11.434Z,35.42
2023-05-06T12:42:11.375Z,35.40
2023-05-06T12:43:11.382Z,35.39
2023-05-06T12:44:11.378Z,35.38
2023-05-06T12:45:11.349Z,35.36
2023-05-06T12:46:11.431Z,35.38
2023-05-06T12:47:11.333Z,35.37
2023-05-06T12:48:11.406Z,35.34
2023-05-06T12:49:11.369Z,35.34
2023-05-06T12:50:11.571Z,35.36
2023-05-06T12:51:11.342Z,35.33
2023-05-06T12:52:11.345Z,35.31
2023-05-06T12:53:11.304Z,35.30
2023-05-06T12:54:11.307Z,35.31
2023-05-06T12:55:11.273Z,35.29
2023-05-06T12:56:11.309Z,35.28
2023-05-06T12:57:11.494Z,35.28
2023-05-06T12:58:11.336Z,35.26
2023-05-06T12:59:11.261Z,35.26
2023-05-06T13:00:11.468Z,35.26
